createdAt,value
2023-01-29T00:00:13.935Z,100654.06
2023-01-29T00:02:16.898Z,100662.38
2023-01-29T00:04:19.950Z,100625.53
2023-01-29T00:06:23.863Z,100623.91
2023-01-29T00:08:27.712Z,100662.31
2023-01-29T00:10:30.234Z,100598.06
2023-01-29T00:12:32.590Z,100703.53
2023-01-29T00:14:35.725Z,100652.50
2023-01-29T00:16:38.256Z,100675.00
2023-01-29T00:18:41.627Z,100707.53
2023-01-29T00:20:44.491Z,100633.94
2023-01-29T00:22:46.833Z,100597.22
2023-01-29T00:24:49.694Z,100643.09
2023-01-29T00:26:52.572Z,100667.38
2023-01-29T00:28:57.616Z,100633.06
2023-01-29T00:31:14.291Z,100607.88
2023-01-29T00:33:17.245Z,100664.03
2023-01-29T00:35:19.750Z,100668.25
2023-01-29T00:37:22.047Z,100646.44
2023-01-29T00:39:31.442Z,100632.31
2023-01-29T00:42:00.997Z,100675.84
2023-01-29T00:44:22.497Z,100636.59
2023-01-29T00:46:25.326Z,100675.09
2023-01-29T00:48:27.667Z,100652.44
2023-01-29T00:50:31.099Z,100611.47
2023-01-29T00:52:33.795Z,100680.81
2023-01-29T00:54:37.143Z,100725.34
2023-01-29T00:56:40.366Z,100685.88
2023-01-29T00:58:42.681Z,100688.38
2023-01-29T01:00:45.164Z,100661.56
2023-01-29T01:03:06.540Z,100683.22
2023-01-29T01:05:14.392Z,100682.41
2023-01-29T01:07:18.493Z,100697.34
2023-01-29T01:09:39.689Z,100702.38
2023-01-29T01:11:42.222Z,100663.81
2023-01-29T01:13:44.731Z,100661.34
2023-01-29T01:15:47.136Z,100635.38
2023-01-29T01:17:59.620Z,100662.94
2023-01-29T01:20:02.817Z,100599.41
2023-01-29T01:22:05.204Z,100655.19
2023-01-29T01:24:07.559Z,100598.44
2023-01-29T01:26:11.828Z,100651.97
2023-01-29T01:28:14.437Z,100565.84
2023-01-29T01:30:17.895Z,100631.00
2023-01-29T01:32:20.844Z,100616.00
2023-01-29T01:34:23.384Z,100642.81
2023-01-29T01:36:25.991Z,100618.50
2023-01-29T01:38:28.504Z,100608.44
2023-01-29T01:40:31.530Z,100621.75
2023-01-29T01:42:33.933Z,100651.91
2023-01-29T01:44:55.015Z,100669.34
2023-01-29T01:46:57.785Z,100614.09
2023-01-29T01:49:17.650Z,100603.97
2023-01-29T01:51:22.234Z,100605.75
2023-01-29T01:53:34.850Z,100634.16
2023-01-29T01:55:49.095Z,100603.22
2023-01-29T01:57:56.898Z,100621.66
2023-01-29T02:00:11.459Z,100623.41
2023-01-29T02:02:36.563Z,100663.47
2023-01-29T02:05:06.770Z,100565.50
2023-01-29T02:07:32.190Z,100621.47
2023-01-29T02:10:06.941Z,100545.38
2023-01-29T02:12:13.006Z,100581.31
2023-01-29T02:14:16.304Z,100577.03
2023-01-29T02:16:18.839Z,100571.94
2023-01-29T02:18:22.404Z,100596.22
2023-01-29T02:20:28.430Z,100600.38
2023-01-29T02:22:55.861Z,100643.63
2023-01-29T02:25:23.645Z,100611.13
2023-01-29T02:27:48.374Z,100651.28
2023-01-29T02:30:26.369Z,100566.69
2023-01-29T02:32:54.575Z,100652.16
2023-01-29T02:35:28.611Z,100656.34
2023-01-29T02:37:40.544Z,100652.91
2023-01-29T02:39:57.249Z,100601.09
2023-01-29T02:42:19.054Z,100654.56
2023-01-29T02:44:46.582Z,100590.31
2023-01-29T02:46:58.984Z,100629.69
2023-01-29T02:49:20.967Z,100608.78
2023-01-29T02:51:39.704Z,100567.81
2023-01-29T02:53:52.534Z,100625.44
2023-01-29T02:56:09.823Z,100574.47
2023-01-29T02:58:15.937Z,100584.53
2023-01-29T03:00:28.116Z,100533.56
2023-01-29T03:02:52.737Z,100613.03
2023-01-29T03:05:02.075Z,100618.78
2023-01-29T03:07:10.886Z,100589.59
2023-01-29T03:09:37.843Z,100678.19
2023-01-29T03:11:49.807Z,100625.63
2023-01-29T03:14:02.887Z,100631.34
2023-01-29T03:16:30.117Z,100669.00
2023-01-29T03:18:44.005Z,100565.38
2023-01-29T03:20:50.643Z,100632.31
2023-01-29T03:23:24.545Z,100608.88
2023-01-29T03:25:48.328Z,100554.53
2023-01-29T03:28:21.130Z,100640.63
2023-01-29T03:30:44.983Z,100664.84
2023-01-29T03:33:06.024Z,100625.66
2023-01-29T03:35:11.442Z,100622.97
2023-01-29T03:37:21.050Z,100659.69
2023-01-29T03:39:30.906Z,100611.28
2023-01-29T03:41:41.004Z,100597.06
2023-01-29T03:44:02.855Z,100556.06
2023-01-29T03:46:10.868Z,100620.47
2023-01-29T03:48:36.701Z,100653.00
2023-01-29T03:50:54.808Z,100621.28
2023-01-29T03:53:05.355Z,100653.03
2023-01-29T03:55:11.019Z,100647.06
2023-01-29T03:57:41.475Z,100596.06
2023-01-29T03:59:52.260Z,100578.53
2023-01-29T04:02:30.257Z,100625.31
2023-01-29T04:04:38.438Z,100578.50
2023-01-29T04:06:46.085Z,100547.41
2023-01-29T04:08:59.255Z,100606.72
2023-01-29T04:11:10.896Z,100525.56
2023-01-29T04:13:16.564Z,100509.75
2023-01-29T04:15:23.238Z,100559.97
2023-01-29T04:17:33.145Z,100635.19
2023-01-29T04:19:42.463Z,100503.25
2023-01-29T04:21:49.449Z,100569.31
2023-01-29T04:23:52.024Z,100583.56
2023-01-29T04:26:33.110Z,100617.78
2023-01-29T04:29:13.341Z,100564.34
2023-01-29T04:31:18.257Z,100543.53
2023-01-29T04:33:26.954Z,100618.06
2023-01-29T04:35:49.173Z,100512.78
2023-01-29T04:38:19.014Z,100534.53
2023-01-29T04:40:39.779Z,100516.19
2023-01-29T04:42:52.848Z,100537.88
2023-01-29T04:45:13.244Z,100533.03
2023-01-29T04:47:26.387Z,100553.84
2023-01-29T04:49:31.817Z,100596.53
2023-01-29T04:51:49.817Z,100566.56
2023-01-29T04:54:06.765Z,100574.19
2023-01-29T04:56:40.264Z,100544.16
2023-01-29T04:58:55.429Z,100540.00
2023-01-29T05:01:00.338Z,100523.28
2023-01-29T05:03:04.302Z,100492.38
2023-01-29T05:05:08.722Z,100541.59
2023-01-29T05:07:14.815Z,100529.81
2023-01-29T05:09:18.416Z,100483.66
2023-01-29T05:11:21.816Z,100543.09
2023-01-29T05:13:26.121Z,100483.72
2023-01-29T05:15:43.212Z,100487.91
2023-01-29T05:17:45.857Z,100535.59
2023-01-29T05:19:48.865Z,100533.97
2023-01-29T05:21:51.345Z,100507.16
2023-01-29T05:24:18.812Z,100589.88
2023-01-29T05:26:41.291Z,100569.84
2023-01-29T05:28:43.759Z,100550.63
2023-01-29T05:30:49.694Z,100571.44
2023-01-29T05:32:52.513Z,100526.25
2023-01-29T05:34:55.173Z,100594.09
2023-01-29T05:36:57.979Z,100557.91
2023-01-29T05:39:00.250Z,100531.41
2023-01-29T05:41:02.734Z,100573.97
2023-01-29T05:43:06.060Z,100505.53
2023-01-29T05:45:09.223Z,100568.19
2023-01-29T05:47:11.560Z,100518.88
2023-01-29T05:49:14.673Z,100546.28
2023-01-29T05:51:17.029Z,100513.00
2023-01-29T05:53:19.961Z,100511.38
2023-01-29T05:55:22.434Z,100483.84
2023-01-29T05:57:25.083Z,100577.31
2023-01-29T05:59:27.421Z,100520.59
2023-01-29T06:01:29.836Z,100493.69
2023-01-29T06:03:32.209Z,100538.91
2023-01-29T06:05:38.754Z,100530.63
2023-01-29T06:07:45.699Z,100575.75
2023-01-29T06:09:48.092Z,100511.47
2023-01-29T06:11:50.474Z,100474.66
2023-01-29T06:13:52.861Z,100580.00
2023-01-29T06:15:55.136Z,100515.66
2023-01-29T06:17:58.143Z,100571.66
2023-01-29T06:20:00.691Z,100508.88
2023-01-29T06:22:03.189Z,100514.69
2023-01-29T06:24:06.195Z,100560.69
2023-01-29T06:26:14.400Z,100537.31
2023-01-29T06:28:16.942Z,100571.66
2023-01-29T06:30:19.516Z,100533.94
2023-01-29T06:32:22.309Z,100537.41
2023-01-29T06:34:24.757Z,100493.91
2023-01-29T06:36:27.233Z,100577.53
2023-01-29T06:38:30.308Z,100518.19
2023-01-29T06:40:32.613Z,100592.53
2023-01-29T06:42:37.789Z,100538.31
2023-01-29T06:44:40.025Z,100567.50
2023-01-29T06:46:42.951Z,100519.88
2023-01-29T06:48:45.122Z,100537.44
2023-01-29T06:50:47.649Z,100600.91
2023-01-29T06:52:50.525Z,100594.97
2023-01-29T06:54:52.721Z,100550.69
2023-01-29T06:56:56.565Z,100544.88
2023-01-29T06:58:58.963Z,100621.78
2023-01-29T07:01:19.663Z,100580.03
2023-01-29T07:03:28.057Z,100592.63
2023-01-29T07:05:31.365Z,100552.44
2023-01-29T07:07:37.426Z,100590.78
2023-01-29T07:09:43.845Z,100584.09
2023-01-29T07:11:46.304Z,100562.28
2023-01-29T07:13:48.596Z,100560.69
2023-01-29T07:15:51.033Z,100589.06
2023-01-29T07:18:01.821Z,100562.25
2023-01-29T07:20:04.421Z,100555.69
2023-01-29T07:22:06.816Z,100578.25
2023-01-29T07:24:09.786Z,100623.34
2023-01-29T07:26:12.559Z,100609.91
2023-01-29T07:28:14.886Z,100583.97
2023-01-29T07:30:18.325Z,100625.81
2023-01-29T07:32:21.215Z,100612.28
2023-01-29T07:34:23.952Z,100570.47
2023-01-29T07:36:27.649Z,100582.97
2023-01-29T07:38:29.826Z,100540.31
2023-01-29T07:40:32.410Z,100641.34
2023-01-29T07:42:35.888Z,100553.84
2023-01-29T07:44:38.038Z,100614.97
2023-01-29T07:46:40.252Z,100617.28
2023-01-29T07:48:42.447Z,100637.41
2023-01-29T07:50:44.942Z,100627.41
2023-01-29T07:52:47.704Z,100598.03
2023-01-29T07:54:50.345Z,100589.72
2023-01-29T07:56:52.898Z,100641.50
2023-01-29T07:58:55.782Z,100618.75
2023-01-29T08:00:58.349Z,100550.16
2023-01-29T08:03:06.371Z,100641.22
2023-01-29T08:05:09.179Z,100548.56
2023-01-29T08:07:11.591Z,100623.00
2023-01-29T08:09:13.925Z,100601.47
2023-01-29T08:11:16.582Z,100664.19
2023-01-29T08:13:18.908Z,100649.16
2023-01-29T08:15:22.384Z,100604.84
2023-01-29T08:17:24.990Z,100665.09
2023-01-29T08:19:27.611Z,100661.69
2023-01-29T08:21:30.458Z,100691.56
2023-01-29T08:23:32.931Z,100636.56
2023-01-29T08:25:36.649Z,100654.25
2023-01-29T08:27:39.288Z,100672.50
2023-01-29T08:29:41.729Z,100650.78
2023-01-29T08:31:44.455Z,100638.25
2023-01-29T08:33:47.449Z,100652.28
2023-01-29T08:35:51.233Z,100657.34
2023-01-29T08:37:59.748Z,100598.84
2023-01-29T08:40:02.283Z,100648.94
2023-01-29T08:42:05.185Z,100671.53
2023-01-29T08:44:11.740Z,100640.44
2023-01-29T08:46:14.251Z,100626.09
2023-01-29T08:48:21.036Z,100663.66
2023-01-29T08:50:23.547Z,100614.06
2023-01-29T08:52:26.069Z,100615.69
2023-01-29T08:54:28.629Z,100620.59
2023-01-29T08:56:31.156Z,100622.88
2023-01-29T08:58:33.697Z,100645.25
2023-01-29T09:00:36.837Z,100635.28
2023-01-29T09:02:39.340Z,100587.38
2023-01-29T09:04:41.875Z,100584.19
2023-01-29T09:06:44.567Z,100587.66
2023-01-29T09:08:47.179Z,100596.69
2023-01-29T09:10:49.527Z,100587.13
2023-01-29T09:12:52.357Z,100649.06
2023-01-29T09:14:55.416Z,100590.47
2023-01-29T09:16:58.502Z,100609.75
2023-01-29T09:19:01.154Z,100649.19
2023-01-29T09:21:03.819Z,100602.34
2023-01-29T09:23:08.291Z,100592.25
2023-01-29T09:25:11.370Z,100634.66
2023-01-29T09:27:13.717Z,100612.16
2023-01-29T09:29:16.118Z,100626.31
2023-01-29T09:31:18.922Z,100613.66
2023-01-29T09:33:22.020Z,100638.50
2023-01-29T09:35:25.163Z,100594.78
2023-01-29T09:37:27.542Z,100601.47
2023-01-29T09:39:29.994Z,100563.66
2023-01-29T09:41:35.011Z,100643.81
2023-01-29T09:43:43.327Z,100636.03
2023-01-29T09:46:13.944Z,100563.28
2023-01-29T09:48:17.173Z,100586.22
2023-01-29T09:50:40.231Z,100539.88
2023-01-29T09:52:56.030Z,100589.09
2023-01-29T09:55:22.895Z,100625.00
2023-01-29T09:57:33.641Z,100548.78
2023-01-29T09:59:36.227Z,100528.72
2023-01-29T10:02:05.169Z,100607.66
2023-01-29T10:04:36.864Z,100519.19
2023-01-29T10:07:05.441Z,100584.91
2023-01-29T10:09:44.200Z,100579.06
2023-01-29T10:12:09.170Z,100558.13
2023-01-29T10:14:44.101Z,100479.72
2023-01-29T10:17:13.994Z,100568.50
2023-01-29T10:19:45.535Z,100527.31
2023-01-29T10:22:18.124Z,100562.69
2023-01-29T10:24:37.014Z,100550.00
2023-01-29T10:26:41.458Z,100489.59
2023-01-29T10:28:46.813Z,100487.81
2023-01-29T10:30:59.494Z,100454.50
2023-01-29T10:33:06.210Z,100431.13
2023-01-29T10:35:25.246Z,100430.47
2023-01-29T10:37:36.927Z,100524.66
2023-01-29T10:39:39.296Z,100430.47
2023-01-29T10:42:06.305Z,100428.69
2023-01-29T10:44:35.697Z,100414.69
2023-01-29T10:47:03.755Z,100490.41
2023-01-29T10:49:47.552Z,100506.09
2023-01-29T10:52:01.730Z,100510.47
2023-01-29T10:54:26.074Z,100463.19
2023-01-29T10:56:52.207Z,100444.00
2023-01-29T10:59:01.895Z,100435.72
2023-01-29T11:01:04.653Z,100428.97
2023-01-29T11:03:28.470Z,100486.19
2023-01-29T11:05:39.333Z,100445.53
2023-01-29T11:07:41.813Z,100453.75
2023-01-29T11:09:56.841Z,100497.53
2023-01-29T11:12:04.741Z,100390.66
2023-01-29T11:14:14.755Z,100455.94
2023-01-29T11:16:17.474Z,100440.06
2023-01-29T11:18:20.043Z,100444.09
2023-01-29T11:20:30.720Z,100480.19
2023-01-29T11:22:34.517Z,100447.50
2023-01-29T11:24:36.761Z,100386.41
2023-01-29T11:26:42.405Z,100430.91
2023-01-29T11:28:46.988Z,100461.19
2023-01-29T11:30:56.176Z,100396.22
2023-01-29T11:33:18.465Z,100415.75
2023-01-29T11:35:23.425Z,100397.41
2023-01-29T11:37:34.765Z,100419.09
2023-01-29T11:39:45.005Z,100416.38
2023-01-29T11:41:57.072Z,100419.94
2023-01-29T11:44:01.573Z,100408.69
2023-01-29T11:46:06.496Z,100417.53
2023-01-29T11:48:17.189Z,100393.72
2023-01-29T11:50:26.101Z,100382.22
2023-01-29T11:52:39.546Z,100411.56
2023-01-29T11:55:04.089Z,100453.84
2023-01-29T11:57:35.727Z,100378.75
2023-01-29T11:59:50.384Z,100442.75
2023-01-29T12:01:52.949Z,100423.44
2023-01-29T12:03:56.067Z,100371.75
2023-01-29T12:06:13.069Z,100360.03
2023-01-29T12:08:18.952Z,100356.13
2023-01-29T12:10:40.813Z,100394.38
2023-01-29T12:12:43.772Z,100367.06
2023-01-29T12:14:46.547Z,100366.00
2023-01-29T12:17:24.442Z,100418.16
2023-01-29T12:20:11.824Z,100336.81
2023-01-29T12:22:41.281Z,100420.94
2023-01-29T12:25:07.926Z,100423.78
2023-01-29T12:27:16.278Z,100419.75
2023-01-29T12:29:28.428Z,100349.03
2023-01-29T12:32:03.997Z,100355.34
2023-01-29T12:34:25.024Z,100383.16
2023-01-29T12:36:58.504Z,100338.38
2023-01-29T12:39:01.043Z,100371.09
2023-01-29T12:41:22.141Z,100381.53
2023-01-29T12:43:39.220Z,100350.50
2023-01-29T12:45:44.668Z,100305.13
2023-01-29T12:47:58.404Z,100363.19
2023-01-29T12:50:07.563Z,100356.13
2023-01-29T12:52:18.592Z,100346.25
2023-01-29T12:54:33.808Z,100305.56
2023-01-29T12:56:41.652Z,100245.41
2023-01-29T12:58:56.206Z,100304.25
2023-01-29T13:01:07.403Z,100325.78
2023-01-29T13:03:27.494Z,100359.47
2023-01-29T13:05:50.229Z,100284.41
2023-01-29T13:08:17.587Z,100313.63
2023-01-29T13:10:27.521Z,100281.97
2023-01-29T13:12:32.378Z,100290.72
2023-01-29T13:14:42.548Z,100339.09
2023-01-29T13:16:50.849Z,100282.44
2023-01-29T13:19:05.028Z,100305.84
2023-01-29T13:21:14.244Z,100305.06
2023-01-29T13:23:22.664Z,100276.78
2023-01-29T13:25:25.382Z,100275.47
2023-01-29T13:27:32.003Z,100259.16
2023-01-29T13:29:34.723Z,100302.47
2023-01-29T13:31:41.506Z,100245.91
2023-01-29T13:34:02.969Z,100263.97
2023-01-29T13:36:06.100Z,100272.88
2023-01-29T13:38:25.961Z,100207.31
2023-01-29T13:40:32.377Z,100209.03
2023-01-29T13:42:44.480Z,100319.53
2023-01-29T13:44:53.604Z,100273.81
2023-01-29T13:46:57.746Z,100241.28
2023-01-29T13:49:05.361Z,100266.28
2023-01-29T13:51:20.780Z,100223.50
2023-01-29T13:53:29.431Z,100183.75
2023-01-29T13:55:35.548Z,100239.63
2023-01-29T13:57:50.711Z,100273.88
2023-01-29T13:59:56.824Z,100240.41
2023-01-29T14:02:04.709Z,100265.41
2023-01-29T14:04:30.053Z,100215.59
2023-01-29T14:06:45.841Z,100228.41
2023-01-29T14:08:48.791Z,100220.13
2023-01-29T14:11:28.433Z,100293.88
2023-01-29T14:13:36.511Z,100211.38
2023-01-29T14:15:40.545Z,100279.75
2023-01-29T14:18:06.180Z,100284.13
2023-01-29T14:20:21.214Z,100218.56
2023-01-29T14:22:27.383Z,100264.06
2023-01-29T14:24:32.196Z,100257.25
2023-01-29T14:26:46.283Z,100238.84
2023-01-29T14:29:14.538Z,100270.66
2023-01-29T14:31:44.810Z,100284.81
2023-01-29T14:33:47.949Z,100189.38
2023-01-29T14:35:52.621Z,100197.84
2023-01-29T14:37:59.880Z,100236.78
2023-01-29T14:40:20.432Z,100298.84
2023-01-29T14:42:52.717Z,100285.47
2023-01-29T14:44:55.152Z,100313.94
2023-01-29T14:46:57.451Z,100288.94
2023-01-29T14:49:00.521Z,100235.72
2023-01-29T14:51:17.373Z,100236.91
2023-01-29T14:53:25.807Z,100309.44
2023-01-29T14:55:36.317Z,100180.69
2023-01-29T14:57:39.154Z,100229.13
2023-01-29T14:59:55.556Z,100245.66
2023-01-29T15:02:03.735Z,100289.88
2023-01-29T15:04:13.590Z,100251.59
2023-01-29T15:06:44.538Z,100214.41
2023-01-29T15:08:54.185Z,100311.25
2023-01-29T15:11:19.858Z,100273.13
2023-01-29T15:13:33.270Z,100293.03
2023-01-29T15:15:44.917Z,100252.38
2023-01-29T15:18:08.491Z,100289.91
2023-01-29T15:20:35.907Z,100269.88
2023-01-29T15:22:44.114Z,100200.03
2023-01-29T15:24:48.757Z,100283.31
2023-01-29T15:26:51.626Z,100174.72
2023-01-29T15:29:04.263Z,100181.38
2023-01-29T15:31:13.541Z,100277.00
2023-01-29T15:33:16.686Z,100179.56
2023-01-29T15:35:34.386Z,100209.56
2023-01-29T15:37:37.786Z,100245.47
2023-01-29T15:39:44.758Z,100210.31
2023-01-29T15:41:48.546Z,100171.34
2023-01-29T15:43:58.432Z,100202.66
2023-01-29T15:46:05.436Z,100209.50
2023-01-29T15:48:19.383Z,100235.28
2023-01-29T15:50:22.443Z,100257.00
2023-01-29T15:52:29.400Z,100187.00
2023-01-29T15:54:34.128Z,100169.81
2023-01-29T15:56:44.570Z,100164.88
2023-01-29T15:58:50.240Z,100226.22
2023-01-29T16:00:56.220Z,100188.78
2023-01-29T16:03:02.017Z,100163.16
2023-01-29T16:05:13.795Z,100208.97
2023-01-29T16:07:16.868Z,100205.56
2023-01-29T16:09:24.104Z,100196.06
2023-01-29T16:11:26.593Z,100243.13
2023-01-29T16:13:33.098Z,100157.31
2023-01-29T16:15:38.743Z,100135.63
2023-01-29T16:17:41.646Z,100213.16
2023-01-29T16:19:43.889Z,100162.22
2023-01-29T16:21:47.310Z,100112.97
2023-01-29T16:23:53.515Z,100201.94
2023-01-29T16:26:05.776Z,100180.94
2023-01-29T16:28:11.439Z,100210.22
2023-01-29T16:30:16.741Z,100171.22
2023-01-29T16:32:20.933Z,100231.94
2023-01-29T16:34:28.367Z,100173.50
2023-01-29T16:36:31.446Z,100212.81
2023-01-29T16:38:36.684Z,100209.50
2023-01-29T16:40:41.261Z,100191.13
2023-01-29T16:42:43.825Z,100220.22
2023-01-29T16:44:58.179Z,100168.69
2023-01-29T16:47:13.230Z,100201.88
2023-01-29T16:49:30.816Z,100231.88
2023-01-29T16:51:40.075Z,100129.78
2023-01-29T16:53:55.900Z,100145.31
2023-01-29T16:56:07.913Z,100129.78
2023-01-29T16:58:26.625Z,100176.94
2023-01-29T17:00:30.793Z,100187.78
2023-01-29T17:02:39.090Z,100160.38
2023-01-29T17:04:41.891Z,100115.31
2023-01-29T17:06:56.266Z,100181.66
2023-01-29T17:08:58.924Z,100120.16
2023-01-29T17:11:02.505Z,100116.81
2023-01-29T17:13:18.490Z,100223.06
2023-01-29T17:15:32.619Z,100222.25
2023-01-29T17:17:37.752Z,100185.50
2023-01-29T17:19:40.338Z,100132.28
2023-01-29T17:21:43.051Z,100172.34
2023-01-29T17:23:45.424Z,100137.44
2023-01-29T17:25:49.263Z,100173.97
2023-01-29T17:27:52.006Z,100121.53
2023-01-29T17:29:54.833Z,100168.03
2023-01-29T17:32:00.513Z,100165.69
2023-01-29T17:34:03.310Z,100102.47
2023-01-29T17:36:06.700Z,100110.91
2023-01-29T17:38:25.974Z,100101.69
2023-01-29T17:40:38.098Z,100175.72
2023-01-29T17:42:41.330Z,100114.16
2023-01-29T17:44:43.765Z,100102.59
2023-01-29T17:46:46.779Z,100163.31
2023-01-29T17:48:52.941Z,100170.78
2023-01-29T17:50:58.058Z,100162.94
2023-01-29T17:53:00.973Z,100130.78
2023-01-29T17:55:03.595Z,100189.56
2023-01-29T17:57:06.184Z,100161.88
2023-01-29T17:59:20.869Z,100115.44
2023-01-29T18:01:24.029Z,100114.09
2023-01-29T18:03:28.345Z,100076.53
2023-01-29T18:05:30.903Z,100170.38
2023-01-29T18:07:33.312Z,100091.66
2023-01-29T18:09:36.140Z,100112.22
2023-01-29T18:11:38.741Z,100154.72
2023-01-29T18:13:42.307Z,100143.22
2023-01-29T18:15:44.620Z,100102.59
2023-01-29T18:17:47.436Z,100149.03
2023-01-29T18:19:50.182Z,100116.44
2023-01-29T18:21:53.741Z,100096.56
2023-01-29T18:23:56.931Z,100109.91
2023-01-29T18:25:59.648Z,100114.09
2023-01-29T18:28:02.699Z,100113.31
2023-01-29T18:30:06.031Z,100145.00
2023-01-29T18:32:09.341Z,100117.75
2023-01-29T18:34:11.847Z,100144.22
2023-01-29T18:36:14.597Z,100151.78
2023-01-29T18:38:18.312Z,100116.03
2023-01-29T18:40:21.091Z,100151.84
2023-01-29T18:42:23.466Z,100115.13
2023-01-29T18:44:25.886Z,100069.50
2023-01-29T18:46:28.645Z,100100.88
2023-01-29T18:48:31.573Z,100116.69
2023-01-29T18:50:35.130Z,100134.13
2023-01-29T18:52:37.692Z,100107.38
2023-01-29T18:54:40.036Z,100173.88
2023-01-29T18:57:06.167Z,100127.19
2023-01-29T18:59:06.650Z,100172.91
2023-01-29T19:01:12.346Z,100137.88
2023-01-29T19:03:15.652Z,100114.63
2023-01-29T19:05:21.858Z,100157.88
2023-01-29T19:07:24.294Z,100096.44
2023-01-29T19:09:26.778Z,100083.06
2023-01-29T19:11:29.711Z,100073.94
2023-01-29T19:13:33.209Z,100157.91
2023-01-29T19:15:36.538Z,100035.88
2023-01-29T19:17:39.658Z,100140.44
2023-01-29T19:19:42.355Z,100100.59
2023-01-29T19:21:44.953Z,100119.59
2023-01-29T19:23:47.651Z,100107.06
2023-01-29T19:25:50.062Z,100033.25
2023-01-29T19:27:52.754Z,100115.66
2023-01-29T19:29:56.679Z,100090.69
2023-01-29T19:31:59.636Z,100099.75
2023-01-29T19:34:02.340Z,100091.53
2023-01-29T19:36:05.664Z,100110.59
2023-01-29T19:38:08.582Z,100076.59
2023-01-29T19:40:12.009Z,100079.34
2023-01-29T19:42:15.237Z,100051.84
2023-01-29T19:44:17.880Z,100018.06
2023-01-29T19:46:21.110Z,100090.28
2023-01-29T19:48:24.121Z,100090.34
2023-01-29T19:50:26.921Z,100091.91
2023-01-29T19:52:50.328Z,100046.09
2023-01-29T19:54:53.648Z,100033.03
2023-01-29T19:56:57.019Z,100056.06
2023-01-29T19:58:59.704Z,100079.41
2023-01-29T20:01:08.161Z,100082.91
2023-01-29T20:03:11.149Z,100125.22
2023-01-29T20:05:18.989Z,100063.69
2023-01-29T20:07:21.747Z,100062.00
2023-01-29T20:09:24.301Z,100075.09
2023-01-29T20:11:26.980Z,100022.03
2023-01-29T20:13:30.001Z,100063.56
2023-01-29T20:15:32.546Z,100026.03
2023-01-29T20:17:34.860Z,100068.56
2023-01-29T20:19:37.344Z,100075.94
2023-01-29T20:21:40.027Z,100068.72
2023-01-29T20:23:45.681Z,99972.97
2023-01-29T20:25:49.212Z,100095.13
2023-01-29T20:27:52.448Z,100018.66
2023-01-29T20:29:55.047Z,100032.84
2023-01-29T20:31:57.598Z,100073.66
2023-01-29T20:34:00.052Z,100077.84
2023-01-29T20:36:06.634Z,100076.78
2023-01-29T20:38:09.059Z,100020.16
2023-01-29T20:40:12.111Z,99976.97
2023-01-29T20:42:14.569Z,100026.56
2023-01-29T20:44:17.046Z,100013.16
2023-01-29T20:46:19.738Z,100057.31
2023-01-29T20:48:22.326Z,100080.34
2023-01-29T20:50:25.058Z,100036.84
2023-01-29T20:52:27.444Z,99965.44
2023-01-29T20:54:30.380Z,100004.28
2023-01-29T20:56:37.094Z,99998.66
2023-01-29T20:58:47.079Z,100020.25
2023-01-29T21:00:50.933Z,99972.16
2023-01-29T21:02:53.517Z,99936.09
2023-01-29T21:04:57.309Z,99928.00
2023-01-29T21:07:00.237Z,99989.28
2023-01-29T21:09:02.666Z,99962.72
2023-01-29T21:11:07.555Z,99990.88
2023-01-29T21:13:10.297Z,99976.88
2023-01-29T21:15:12.830Z,99949.50
2023-01-29T21:17:15.235Z,99977.66
2023-01-29T21:19:17.696Z,99956.13
2023-01-29T21:21:20.164Z,99948.00
2023-01-29T21:23:22.810Z,100017.75
2023-01-29T21:25:25.411Z,99936.41
2023-01-29T21:27:27.915Z,99965.41
2023-01-29T21:29:30.415Z,99951.63
2023-01-29T21:31:33.879Z,99965.00
2023-01-29T21:33:37.607Z,99990.00
2023-01-29T21:35:40.222Z,100005.69
2023-01-29T21:37:42.762Z,99949.75
2023-01-29T21:39:46.123Z,99943.13
2023-01-29T21:42:09.276Z,99922.53
2023-01-29T21:44:12.992Z,99936.13
2023-01-29T21:46:16.781Z,99960.16
2023-01-29T21:48:19.271Z,99939.31
2023-01-29T21:50:21.720Z,99908.75
2023-01-29T21:52:24.131Z,99928.81
2023-01-29T21:54:31.402Z,99955.19
2023-01-29T21:56:33.661Z,99981.78
2023-01-29T21:58:36.079Z,99941.00
2023-01-29T22:00:39.280Z,99925.06
2023-01-29T22:02:42.212Z,99924.22
2023-01-29T22:04:45.040Z,99904.06
2023-01-29T22:06:47.367Z,99908.84
2023-01-29T22:08:50.718Z,99900.59
2023-01-29T22:10:53.265Z,99890.50
2023-01-29T22:12:55.908Z,99897.94
2023-01-29T22:14:58.171Z,99868.78
2023-01-29T22:17:00.830Z,99898.84
2023-01-29T22:19:03.307Z,99904.38
2023-01-29T22:21:06.273Z,99843.78
2023-01-29T22:23:08.993Z,99904.06
2023-01-29T22:25:11.497Z,99932.28
2023-01-29T22:27:15.553Z,99895.09
2023-01-29T22:29:18.681Z,99902.41
2023-01-29T22:31:20.980Z,99870.69
2023-01-29T22:33:23.530Z,99892.41
2023-01-29T22:35:25.816Z,99873.22
2023-01-29T22:37:28.118Z,99858.28
2023-01-29T22:39:30.809Z,99828.19
2023-01-29T22:41:34.074Z,99883.81
2023-01-29T22:43:37.120Z,99850.53
2023-01-29T22:45:39.840Z,99874.72
2023-01-29T22:47:42.197Z,99868.00
2023-01-29T22:49:45.883Z,99882.84
2023-01-29T22:51:48.393Z,99860.34
2023-01-29T22:53:55.411Z,99845.31
2023-01-29T22:55:57.912Z,99825.31
2023-01-29T22:58:00.797Z,99865.06
2023-01-29T23:00:06.739Z,99874.75
2023-01-29T23:02:09.742Z,99794.34
2023-01-29T23:04:12.127Z,99820.63
2023-01-29T23:06:15.935Z,99774.66
2023-01-29T23:08:18.359Z,99837.03
2023-01-29T23:10:20.743Z,99814.56
2023-01-29T23:12:23.130Z,99810.09
2023-01-29T23:14:26.205Z,99781.19
2023-01-29T23:16:29.363Z,99739.59
2023-01-29T23:18:31.691Z,99730.69
2023-01-29T23:20:34.209Z,99787.72
2023-01-29T23:22:36.499Z,99793.50
2023-01-29T23:24:39.262Z,99782.47
2023-01-29T23:26:59.799Z,99759.13
2023-01-29T23:29:04.210Z,99831.59
2023-01-29T23:31:06.586Z,99765.25
2023-01-29T23:33:12.026Z,99769.47
2023-01-29T23:35:15.065Z,99708.25
2023-01-29T23:37:17.413Z,99725.75
2023-01-29T23:39:20.615Z,99743.16
2023-01-29T23:41:23.153Z,99767.88
2023-01-29T23:43:26.573Z,99743.75
2023-01-29T23:45:29.206Z,99745.28
2023-01-29T23:47:31.913Z,99710.66
2023-01-29T23:49:35.140Z,99730.34
2023-01-29T23:51:37.805Z,99739.50
2023-01-29T23:53:40.620Z,99738.66
2023-01-29T23:55:43.409Z,99702.13
2023-01-29T23:57:46.234Z,99723.06
2023-01-29T23:59:48.502Z,99774.50
